sensor_id;sensor_type;location;lat;lon;timestamp;temperature;humidity
49379;DHT22;35254;47.990;-1.608;2023-05-07T00:00:22;21.30;64.50
49379;DHT22;35254;47.990;-1.608;2023-05-07T00:02:48;21.40;64.40
49379;DHT22;35254;47.990;-1.608;2023-05-07T00:05:14;21.40;64.40
49379;DHT22;35254;47.990;-1.608;2023-05-07T00:07:40;21.30;64.40
49379;DHT22;35254;47.990;-1.608;2023-05-07T00:10:06;21.30;64.50
49379;DHT22;35254;47.990;-1.608;2023-05-07T00:12:32;21.30;64.50
49379;DHT22;35254;47.990;-1.608;2023-05-07T00:15:01;21.30;64.50
49379;DHT22;35254;47.990;-1.608;2023-05-07T00:17:26;21.30;64.50
49379;DHT22;35254;47.990;-1.608;2023-05-07T00:19:52;21.30;64.50
49379;DHT22;35254;47.990;-1.608;2023-05-07T00:22:17;21.30;64.50
49379;DHT22;35254;47.990;-1.608;2023-05-07T00:24:43;21.30;64.50
49379;DHT22;35254;47.990;-1.608;2023-05-07T00:27:09;21.30;64.40
49379;DHT22;35254;47.990;-1.608;2023-05-07T00:29:34;21.20;64.40
49379;DHT22;35254;47.990;-1.608;2023-05-07T00:32:01;21.30;64.40
49379;DHT22;35254;47.990;-1.608;2023-05-07T00:34:26;21.30;64.30
49379;DHT22;35254;47.990;-1.608;2023-05-07T00:36:52;21.30;64.40
49379;DHT22;35254;47.990;-1.608;2023-05-07T00:39:18;21.30;64.40
49379;DHT22;35254;47.990;-1.608;2023-05-07T00:41:44;21.30;64.30
49379;DHT22;35254;47.990;-1.608;2023-05-07T00:44:10;21.30;64.30
49379;DHT22;35254;47.990;-1.608;2023-05-07T00:46:35;21.30;64.30
49379;DHT22;35254;47.990;-1.608;2023-05-07T00:49:01;21.20;64.30
49379;DHT22;35254;47.990;-1.608;2023-05-07T00:51:27;21.30;64.40
49379;DHT22;35254;47.990;-1.608;2023-05-07T00:53:53;21.20;64.30
49379;DHT22;35254;47.990;-1.608;2023-05-07T00:56:21;21.30;64.30
49379;DHT22;35254;47.990;-1.608;2023-05-07T00:58:47;21.20;64.30
49379;DHT22;35254;47.990;-1.608;2023-05-07T01:01:13;21.20;64.30
49379;DHT22;35254;47.990;-1.608;2023-05-07T01:03:38;21.20;64.30
49379;DHT22;35254;47.990;-1.608;2023-05-07T01:06:05;21.20;64.40
49379;DHT22;35254;47.990;-1.608;2023-05-07T01:08:32;21.20;64.40
49379;DHT22;35254;47.990;-1.608;2023-05-07T01:10:58;21.20;64.30
49379;DHT22;35254;47.990;-1.608;2023-05-07T01:13:25;21.20;64.40
49379;DHT22;35254;47.990;-1.608;2023-05-07T01:15:50;21.20;64.30
49379;DHT22;35254;47.990;-1.608;2023-05-07T01:18:16;21.20;64.40
49379;DHT22;35254;47.990;-1.608;2023-05-07T01:20:42;21.20;64.30
49379;DHT22;35254;47.990;-1.608;2023-05-07T01:23:08;21.20;64.40
49379;DHT22;35254;47.990;-1.608;2023-05-07T01:25:35;21.20;64.40
49379;DHT22;35254;47.990;-1.608;2023-05-07T01:28:01;21.20;64.40
49379;DHT22;35254;47.990;-1.608;2023-05-07T01:30:28;21.20;64.30
49379;DHT22;35254;47.990;-1.608;2023-05-07T01:33:04;21.20;64.40
49379;DHT22;35254;47.990;-1.608;2023-05-07T01:35:37;21.20;64.30
49379;DHT22;35254;47.990;-1.608;2023-05-07T01:38:04;21.20;64.30
49379;DHT22;35254;47.990;-1.608;2023-05-07T01:40:31;21.20;64.30
49379;DHT22;35254;47.990;-1.608;2023-05-07T01:42:57;21.20;64.30
49379;DHT22;35254;47.990;-1.608;2023-05-07T01:45:23;21.20;64.40
49379;DHT22;35254;47.990;-1.608;2023-05-07T01:47:49;21.20;64.30
49379;DHT22;35254;47.990;-1.608;2023-05-07T01:50:17;21.20;64.30
49379;DHT22;35254;47.990;-1.608;2023-05-07T01:52:44;21.20;64.40
49379;DHT22;35254;47.990;-1.608;2023-05-07T01:55:09;21.20;64.30
49379;DHT22;35254;47.990;-1.608;2023-05-07T01:57:35;21.20;64.30
49379;DHT22;35254;47.990;-1.608;2023-05-07T02:00:01;21.20;64.30
49379;DHT22;35254;47.990;-1.608;2023-05-07T02:02:28;21.20;64.30
49379;DHT22;35254;47.990;-1.608;2023-05-07T02:04:53;21.20;64.30
49379;DHT22;35254;47.990;-1.608;2023-05-07T02:07:19;21.10;64.30
49379;DHT22;35254;47.990;-1.608;2023-05-07T02:09:45;21.20;64.40
49379;DHT22;35254;47.990;-1.608;2023-05-07T02:12:10;21.10;64.30
49379;DHT22;35254;47.990;-1.608;2023-05-07T02:14:36;21.20;64.40
49379;DHT22;35254;47.990;-1.608;2023-05-07T02:17:01;21.20;64.30
49379;DHT22;35254;47.990;-1.608;2023-05-07T02:19:27;21.10;64.20
49379;DHT22;35254;47.990;-1.608;2023-05-07T02:21:53;21.10;64.30
49379;DHT22;35254;47.990;-1.608;2023-05-07T02:24:18;21.10;64.30
49379;DHT22;35254;47.990;-1.608;2023-05-07T02:26:44;21.10;64.30
49379;DHT22;35254;47.990;-1.608;2023-05-07T02:29:09;21.10;64.20
49379;DHT22;35254;47.990;-1.608;2023-05-07T02:31:35;21.10;64.30
49379;DHT22;35254;47.990;-1.608;2023-05-07T02:34:01;21.10;64.20
49379;DHT22;35254;47.990;-1.608;2023-05-07T02:36:26;21.10;64.20
49379;DHT22;35254;47.990;-1.608;2023-05-07T02:38:52;21.10;64.30
49379;DHT22;35254;47.990;-1.608;2023-05-07T02:41:18;21.10;64.30
49379;DHT22;35254;47.990;-1.608;2023-05-07T02:43:44;21.10;64.20
49379;DHT22;35254;47.990;-1.608;2023-05-07T02:46:09;21.10;64.20
49379;DHT22;35254;47.990;-1.608;2023-05-07T02:48:35;21.10;64.20
49379;DHT22;35254;47.990;-1.608;2023-05-07T02:51:01;21.10;64.10
49379;DHT22;35254;47.990;-1.608;2023-05-07T02:53:27;21.00;64.10
49379;DHT22;35254;47.990;-1.608;2023-05-07T02:55:56;21.10;64.10
49379;DHT22;35254;47.990;-1.608;2023-05-07T02:58:22;21.10;64.20
49379;DHT22;35254;47.990;-1.608;2023-05-07T03:00:48;21.10;64.10
49379;DHT22;35254;47.990;-1.608;2023-05-07T03:03:14;21.10;64.20
49379;DHT22;35254;47.990;-1.608;2023-05-07T03:05:40;21.00;64.00
49379;DHT22;35254;47.990;-1.608;2023-05-07T03:08:06;21.00;64.10
49379;DHT22;35254;47.990;-1.608;2023-05-07T03:10:32;21.00;64.10
49379;DHT22;35254;47.990;-1.608;2023-05-07T03:12:58;21.00;64.10
49379;DHT22;35254;47.990;-1.608;2023-05-07T03:15:23;21.10;64.00
49379;DHT22;35254;47.990;-1.608;2023-05-07T03:17:49;21.00;64.00
49379;DHT22;35254;47.990;-1.608;2023-05-07T03:20:15;21.00;64.00
49379;DHT22;35254;47.990;-1.608;2023-05-07T03:22:40;21.00;64.10
49379;DHT22;35254;47.990;-1.608;2023-05-07T03:25:07;21.00;64.00
49379;DHT22;35254;47.990;-1.608;2023-05-07T03:27:32;21.00;64.10
49379;DHT22;35254;47.990;-1.608;2023-05-07T03:29:59;21.00;64.00
49379;DHT22;35254;47.990;-1.608;2023-05-07T03:32:25;21.00;64.10
49379;DHT22;35254;47.990;-1.608;2023-05-07T03:34:51;21.00;64.10
49379;DHT22;35254;47.990;-1.608;2023-05-07T03:37:16;21.00;64.10
49379;DHT22;35254;47.990;-1.608;2023-05-07T03:39:42;21.00;64.00
49379;DHT22;35254;47.990;-1.608;2023-05-07T03:42:08;21.00;64.00
49379;DHT22;35254;47.990;-1.608;2023-05-07T03:44:33;21.00;64.00
49379;DHT22;35254;47.990;-1.608;2023-05-07T03:46:59;21.00;64.00
49379;DHT22;35254;47.990;-1.608;2023-05-07T03:49:25;21.00;64.10
49379;DHT22;35254;47.990;-1.608;2023-05-07T03:51:50;21.00;64.00
49379;DHT22;35254;47.990;-1.608;2023-05-07T03:54:16;21.00;64.00
49379;DHT22;35254;47.990;-1.608;2023-05-07T03:56:41;21.00;64.00
49379;DHT22;35254;47.990;-1.608;2023-05-07T03:59:07;21.00;63.90
49379;DHT22;35254;47.990;-1.608;2023-05-07T04:01:33;21.00;63.90
49379;DHT22;35254;47.990;-1.608;2023-05-07T04:03:58;21.00;63.90
49379;DHT22;35254;47.990;-1.608;2023-05-07T04:06:24;21.00;63.90
49379;DHT22;35254;47.990;-1.608;2023-05-07T04:08:50;21.00;64.00
49379;DHT22;35254;47.990;-1.608;2023-05-07T04:11:15;21.00;63.90
49379;DHT22;35254;47.990;-1.608;2023-05-07T04:13:41;21.00;64.00
49379;DHT22;35254;47.990;-1.608;2023-05-07T04:16:07;21.00;64.00
49379;DHT22;35254;47.990;-1.608;2023-05-07T04:18:33;21.00;64.00
49379;DHT22;35254;47.990;-1.608;2023-05-07T04:20:58;20.90;63.90
49379;DHT22;35254;47.990;-1.608;2023-05-07T04:23:24;21.00;64.00
49379;DHT22;35254;47.990;-1.608;2023-05-07T04:25:50;21.00;64.00
49379;DHT22;35254;47.990;-1.608;2023-05-07T04:28:16;20.90;64.00
49379;DHT22;35254;47.990;-1.608;2023-05-07T04:30:41;21.00;64.00
49379;DHT22;35254;47.990;-1.608;2023-05-07T04:33:07;21.00;64.00
49379;DHT22;35254;47.990;-1.608;2023-05-07T04:35:33;20.90;63.90
49379;DHT22;35254;47.990;-1.608;2023-05-07T04:37:58;20.90;64.00
49379;DHT22;35254;47.990;-1.608;2023-05-07T04:40:24;20.90;64.00
49379;DHT22;35254;47.990;-1.608;2023-05-07T04:42:50;20.90;64.00
49379;DHT22;35254;47.990;-1.608;2023-05-07T04:45:16;20.90;64.10
49379;DHT22;35254;47.990;-1.608;2023-05-07T04:47:42;20.90;64.00
49379;DHT22;35254;47.990;-1.608;2023-05-07T04:50:08;20.90;64.00
49379;DHT22;35254;47.990;-1.608;2023-05-07T04:52:34;20.90;64.00
49379;DHT22;35254;47.990;-1.608;2023-05-07T04:55:00;20.90;64.00
49379;DHT22;35254;47.990;-1.608;2023-05-07T04:57:27;20.90;63.90
49379;DHT22;35254;47.990;-1.608;2023-05-07T04:59:53;20.90;64.00
49379;DHT22;35254;47.990;-1.608;2023-05-07T05:02:19;20.90;64.00
49379;DHT22;35254;47.990;-1.608;2023-05-07T05:04:44;21.00;64.00
49379;DHT22;35254;47.990;-1.608;2023-05-07T05:07:10;20.90;64.00
49379;DHT22;35254;47.990;-1.608;2023-05-07T05:09:36;20.90;64.00
49379;DHT22;35254;47.990;-1.608;2023-05-07T05:12:01;20.90;63.90
49379;DHT22;35254;47.990;-1.608;2023-05-07T05:14:27;20.90;63.90
49379;DHT22;35254;47.990;-1.608;2023-05-07T05:16:53;20.90;64.00
49379;DHT22;35254;47.990;-1.608;2023-05-07T05:19:18;20.90;63.90
49379;DHT22;35254;47.990;-1.608;2023-05-07T05:21:44;20.90;63.90
49379;DHT22;35254;47.990;-1.608;2023-05-07T05:24:10;20.90;64.00
49379;DHT22;35254;47.990;-1.608;2023-05-07T05:26:35;20.90;63.90
49379;DHT22;35254;47.990;-1.608;2023-05-07T05:29:01;20.90;64.00
49379;DHT22;35254;47.990;-1.608;2023-05-07T05:31:26;20.90;64.00
49379;DHT22;35254;47.990;-1.608;2023-05-07T05:33:52;20.90;64.00
49379;DHT22;35254;47.990;-1.608;2023-05-07T05:36:18;20.90;64.00
49379;DHT22;35254;47.990;-1.608;2023-05-07T05:38:43;20.90;64.00
49379;DHT22;35254;47.990;-1.608;2023-05-07T05:41:09;20.90;64.00
49379;DHT22;35254;47.990;-1.608;2023-05-07T05:43:35;20.90;64.00
49379;DHT22;35254;47.990;-1.608;2023-05-07T05:46:01;20.90;63.90
49379;DHT22;35254;47.990;-1.608;2023-05-07T05:48:28;20.90;64.00
49379;DHT22;35254;47.990;-1.608;2023-05-07T05:50:54;20.90;64.00
49379;DHT22;35254;47.990;-1.608;2023-05-07T05:53:19;20.90;63.90
49379;DHT22;35254;47.990;-1.608;2023-05-07T05:55:45;20.90;63.90
49379;DHT22;35254;47.990;-1.608;2023-05-07T05:58:11;20.90;64.00
49379;DHT22;35254;47.990;-1.608;2023-05-07T06:00:37;20.90;64.00
49379;DHT22;35254;47.990;-1.608;2023-05-07T06:03:03;20.90;64.00
49379;DHT22;35254;47.990;-1.608;2023-05-07T06:05:28;20.90;64.00
49379;DHT22;35254;47.990;-1.608;2023-05-07T06:07:54;20.90;64.00
49379;DHT22;35254;47.990;-1.608;2023-05-07T06:10:19;20.90;63.90
49379;DHT22;35254;47.990;-1.608;2023-05-07T06:12:45;20.80;63.90
49379;DHT22;35254;47.990;-1.608;2023-05-07T06:15:11;20.80;64.00
49379;DHT22;35254;47.990;-1.608;2023-05-07T06:17:36;20.80;63.90
49379;DHT22;35254;47.990;-1.608;2023-05-07T06:20:02;20.90;63.90
49379;DHT22;35254;47.990;-1.608;2023-05-07T06:22:28;20.80;64.00
49379;DHT22;35254;47.990;-1.608;2023-05-07T06:24:53;20.80;64.00
49379;DHT22;35254;47.990;-1.608;2023-05-07T06:27:19;20.80;64.00
49379;DHT22;35254;47.990;-1.608;2023-05-07T06:29:45;20.80;64.00
49379;DHT22;35254;47.990;-1.608;2023-05-07T06:32:11;20.80;64.00
49379;DHT22;35254;47.990;-1.608;2023-05-07T06:34:38;20.80;63.90
49379;DHT22;35254;47.990;-1.608;2023-05-07T06:37:05;20.80;64.00
49379;DHT22;35254;47.990;-1.608;2023-05-07T06:39:30;20.80;63.90
49379;DHT22;35254;47.990;-1.608;2023-05-07T06:41:56;20.80;63.90
49379;DHT22;35254;47.990;-1.608;2023-05-07T06:44:22;20.80;64.00
49379;DHT22;35254;47.990;-1.608;2023-05-07T06:46:48;20.80;64.00
49379;DHT22;35254;47.990;-1.608;2023-05-07T06:49:13;20.80;64.10
49379;DHT22;35254;47.990;-1.608;2023-05-07T06:51:39;20.80;64.10
49379;DHT22;35254;47.990;-1.608;2023-05-07T06:54:05;20.80;64.10
49379;DHT22;35254;47.990;-1.608;2023-05-07T06:56:31;20.80;64.10
49379;DHT22;35254;47.990;-1.608;2023-05-07T06:58:57;20.80;64.10
49379;DHT22;35254;47.990;-1.608;2023-05-07T07:01:22;20.80;64.20
49379;DHT22;35254;47.990;-1.608;2023-05-07T07:03:48;20.80;64.20
49379;DHT22;35254;47.990;-1.608;2023-05-07T07:06:14;20.70;64.30
49379;DHT22;35254;47.990;-1.608;2023-05-07T07:08:39;20.80;64.30
49379;DHT22;35254;47.990;-1.608;2023-05-07T07:11:06;20.80;64.30
49379;DHT22;35254;47.990;-1.608;2023-05-07T07:13:32;20.80;64.30
49379;DHT22;35254;47.990;-1.608;2023-05-07T07:15:57;20.70;64.30
49379;DHT22;35254;47.990;-1.608;2023-05-07T07:18:23;20.70;64.30
49379;DHT22;35254;47.990;-1.608;2023-05-07T07:20:49;20.80;64.40
49379;DHT22;35254;47.990;-1.608;2023-05-07T07:23:14;20.70;64.40
49379;DHT22;35254;47.990;-1.608;2023-05-07T07:25:40;20.70;64.40
49379;DHT22;35254;47.990;-1.608;2023-05-07T07:28:06;20.70;64.50
49379;DHT22;35254;47.990;-1.608;2023-05-07T07:30:32;20.70;64.50
49379;DHT22;35254;47.990;-1.608;2023-05-07T07:32:58;20.70;64.60
49379;DHT22;35254;47.990;-1.608;2023-05-07T07:35:34;20.70;64.60
49379;DHT22;35254;47.990;-1.608;2023-05-07T07:38:00;20.70;64.60
49379;DHT22;35254;47.990;-1.608;2023-05-07T07:40:25;20.70;64.60
49379;DHT22;35254;47.990;-1.608;2023-05-07T07:42:52;20.70;64.70
49379;DHT22;35254;47.990;-1.608;2023-05-07T07:45:18;20.70;64.80
49379;DHT22;35254;47.990;-1.608;2023-05-07T07:47:43;20.70;64.70
49379;DHT22;35254;47.990;-1.608;2023-05-07T07:50:09;20.70;64.90
49379;DHT22;35254;47.990;-1.608;2023-05-07T07:52:35;20.70;64.90
49379;DHT22;35254;47.990;-1.608;2023-05-07T07:55:01;20.70;64.80
49379;DHT22;35254;47.990;-1.608;2023-05-07T07:57:27;20.70;64.90
49379;DHT22;35254;47.990;-1.608;2023-05-07T07:59:52;20.70;64.90
49379;DHT22;35254;47.990;-1.608;2023-05-07T08:02:18;20.70;65.00
49379;DHT22;35254;47.990;-1.608;2023-05-07T08:04:44;20.70;65.10
49379;DHT22;35254;47.990;-1.608;2023-05-07T08:07:10;20.70;65.10
49379;DHT22;35254;47.990;-1.608;2023-05-07T08:09:37;20.70;65.10
49379;DHT22;35254;47.990;-1.608;2023-05-07T08:12:04;20.70;65.20
49379;DHT22;35254;47.990;-1.608;2023-05-07T08:14:29;20.70;65.10
49379;DHT22;35254;47.990;-1.608;2023-05-07T08:16:55;20.70;65.20
49379;DHT22;35254;47.990;-1.608;2023-05-07T08:19:21;20.70;65.10
49379;DHT22;35254;47.990;-1.608;2023-05-07T08:21:47;20.70;65.30
49379;DHT22;35254;47.990;-1.608;2023-05-07T08:24:14;20.70;65.20
49379;DHT22;35254;47.990;-1.608;2023-05-07T08:26:40;20.70;65.40
49379;DHT22;35254;47.990;-1.608;2023-05-07T08:29:06;20.70;65.40
49379;DHT22;35254;47.990;-1.608;2023-05-07T08:31:31;20.70;65.30
49379;DHT22;35254;47.990;-1.608;2023-05-07T08:33:58;20.70;65.30
49379;DHT22;35254;47.990;-1.608;2023-05-07T08:36:24;20.70;65.30
49379;DHT22;35254;47.990;-1.608;2023-05-07T08:38:49;20.70;65.40
49379;DHT22;35254;47.990;-1.608;2023-05-07T08:41:15;20.70;65.40
49379;DHT22;35254;47.990;-1.608;2023-05-07T08:43:41;20.70;65.40
49379;DHT22;35254;47.990;-1.608;2023-05-07T08:46:10;20.70;65.60
49379;DHT22;35254;47.990;-1.608;2023-05-07T08:48:37;20.70;65.40
49379;DHT22;35254;47.990;-1.608;2023-05-07T08:51:02;20.70;65.60
49379;DHT22;35254;47.990;-1.608;2023-05-07T08:53:28;20.70;65.50
49379;DHT22;35254;47.990;-1.608;2023-05-07T08:55:54;20.70;65.70
49379;DHT22;35254;47.990;-1.608;2023-05-07T08:58:20;20.70;65.60
49379;DHT22;35254;47.990;-1.608;2023-05-07T09:00:47;20.70;65.60
49379;DHT22;35254;47.990;-1.608;2023-05-07T09:03:12;20.70;65.60
49379;DHT22;35254;47.990;-1.608;2023-05-07T09:05:39;20.70;65.70
49379;DHT22;35254;47.990;-1.608;2023-05-07T09:08:06;20.70;65.70
49379;DHT22;35254;47.990;-1.608;2023-05-07T09:10:33;20.70;65.70
49379;DHT22;35254;47.990;-1.608;2023-05-07T09:12:59;20.60;65.70
49379;DHT22;35254;47.990;-1.608;2023-05-07T09:15:27;20.70;65.80
49379;DHT22;35254;47.990;-1.608;2023-05-07T09:17:53;20.70;65.80
49379;DHT22;35254;47.990;-1.608;2023-05-07T09:20:19;20.70;65.90
49379;DHT22;35254;47.990;-1.608;2023-05-07T09:22:44;20.70;65.80
49379;DHT22;35254;47.990;-1.608;2023-05-07T09:25:10;20.70;65.90
49379;DHT22;35254;47.990;-1.608;2023-05-07T09:27:36;20.70;66.00
49379;DHT22;35254;47.990;-1.608;2023-05-07T09:30:06;20.70;65.90
49379;DHT22;35254;47.990;-1.608;2023-05-07T09:32:36;20.70;65.90
49379;DHT22;35254;47.990;-1.608;2023-05-07T09:35:03;20.70;66.00
49379;DHT22;35254;47.990;-1.608;2023-05-07T09:37:31;20.70;66.00
49379;DHT22;35254;47.990;-1.608;2023-05-07T09:39:57;20.70;66.20
49379;DHT22;35254;47.990;-1.608;2023-05-07T09:42:23;20.60;66.00
49379;DHT22;35254;47.990;-1.608;2023-05-07T09:44:50;20.60;66.00
49379;DHT22;35254;47.990;-1.608;2023-05-07T09:47:19;20.60;66.20
49379;DHT22;35254;47.990;-1.608;2023-05-07T09:49:47;20.70;66.10
49379;DHT22;35254;47.990;-1.608;2023-05-07T09:52:13;20.60;66.10
49379;DHT22;35254;47.990;-1.608;2023-05-07T09:54:40;20.60;66.20
49379;DHT22;35254;47.990;-1.608;2023-05-07T09:57:10;20.60;66.20
49379;DHT22;35254;47.990;-1.608;2023-05-07T09:59:38;20.60;66.10
49379;DHT22;35254;47.990;-1.608;2023-05-07T10:02:04;20.70;66.00
49379;DHT22;35254;47.990;-1.608;2023-05-07T10:04:31;20.60;66.10
49379;DHT22;35254;47.990;-1.608;2023-05-07T10:06:57;20.60;66.10
49379;DHT22;35254;47.990;-1.608;2023-05-07T10:09:25;20.70;66.00
49379;DHT22;35254;47.990;-1.608;2023-05-07T10:11:51;20.70;66.00
49379;DHT22;35254;47.990;-1.608;2023-05-07T10:14:20;20.60;65.90
49379;DHT22;35254;47.990;-1.608;2023-05-07T10:16:48;20.70;65.90
49379;DHT22;35254;47.990;-1.608;2023-05-07T10:19:14;20.60;65.90
49379;DHT22;35254;47.990;-1.608;2023-05-07T10:21:54;20.60;65.80
49379;DHT22;35254;47.990;-1.608;2023-05-07T10:24:27;20.60;66.00
49379;DHT22;35254;47.990;-1.608;2023-05-07T10:26:55;20.70;65.80
49379;DHT22;35254;47.990;-1.608;2023-05-07T10:29:39;20.60;65.90
49379;DHT22;35254;47.990;-1.608;2023-05-07T10:32:33;20.60;66.20
49379;DHT22;35254;47.990;-1.608;2023-05-07T10:35:03;20.60;66.00
49379;DHT22;35254;47.990;-1.608;2023-05-07T10:37:30;20.60;65.10
49379;DHT22;35254;47.990;-1.608;2023-05-07T10:39:56;20.60;64.70
49379;DHT22;35254;47.990;-1.608;2023-05-07T10:42:23;20.60;64.50
49379;DHT22;35254;47.990;-1.608;2023-05-07T10:44:48;20.60;64.10
49379;DHT22;35254;47.990;-1.608;2023-05-07T10:47:16;20.60;63.80
49379;DHT22;35254;47.990;-1.608;2023-05-07T10:54:44;20.70;63.20
49379;DHT22;35254;47.990;-1.608;2023-05-07T10:59:57;20.60;63.00
49379;DHT22;35254;47.990;-1.608;2023-05-07T11:02:23;20.60;63.00
49379;DHT22;35254;47.990;-1.608;2023-05-07T11:05:24;20.60;63.00
49379;DHT22;35254;47.990;-1.608;2023-05-07T11:07:58;20.60;62.50
49379;DHT22;35254;47.990;-1.608;2023-05-07T11:10:47;20.60;62.70
49379;DHT22;35254;47.990;-1.608;2023-05-07T11:13:14;20.60;62.20
49379;DHT22;35254;47.990;-1.608;2023-05-07T11:15:42;20.60;62.50
49379;DHT22;35254;47.990;-1.608;2023-05-07T11:18:09;20.60;61.90
49379;DHT22;35254;47.990;-1.608;2023-05-07T11:20:48;20.60;62.10
49379;DHT22;35254;47.990;-1.608;2023-05-07T11:26:06;20.60;62.10
49379;DHT22;35254;47.990;-1.608;2023-05-07T11:28:40;20.60;62.30
49379;DHT22;35254;47.990;-1.608;2023-05-07T11:31:06;20.60;62.10
49379;DHT22;35254;47.990;-1.608;2023-05-07T11:33:32;20.60;61.90
49379;DHT22;35254;47.990;-1.608;2023-05-07T11:35:59;20.60;61.80
49379;DHT22;35254;47.990;-1.608;2023-05-07T11:38:26;20.60;62.10
49379;DHT22;35254;47.990;-1.608;2023-05-07T11:40:56;20.60;62.00
49379;DHT22;35254;47.990;-1.608;2023-05-07T11:43:21;20.60;61.90
49379;DHT22;35254;47.990;-1.608;2023-05-07T11:45:48;20.60;62.00
49379;DHT22;35254;47.990;-1.608;2023-05-07T11:48:15;20.70;61.70
49379;DHT22;35254;47.990;-1.608;2023-05-07T11:51:03;20.60;61.60
49379;DHT22;35254;47.990;-1.608;2023-05-07T11:53:37;20.60;61.60
49379;DHT22;35254;47.990;-1.608;2023-05-07T11:56:10;20.60;61.70
49379;DHT22;35254;47.990;-1.608;2023-05-07T11:58:36;20.60;61.80
49379;DHT22;35254;47.990;-1.608;2023-05-07T12:01:02;20.60;61.40
49379;DHT22;35254;47.990;-1.608;2023-05-07T12:03:28;20.60;61.50
49379;DHT22;35254;47.990;-1.608;2023-05-07T12:05:54;20.60;61.60
49379;DHT22;35254;47.990;-1.608;2023-05-07T12:08:21;20.60;61.60
49379;DHT22;35254;47.990;-1.608;2023-05-07T12:10:49;20.60;61.10
49379;DHT22;35254;47.990;-1.608;2023-05-07T12:13:15;20.60;61.30
49379;DHT22;35254;47.990;-1.608;2023-05-07T12:15:42;20.60;61.20
49379;DHT22;35254;47.990;-1.608;2023-05-07T12:18:08;20.60;61.10
49379;DHT22;35254;47.990;-1.608;2023-05-07T12:20:35;20.60;61.30
49379;DHT22;35254;47.990;-1.608;2023-05-07T12:23:02;20.60;61.40
49379;DHT22;35254;47.990;-1.608;2023-05-07T12:25:31;20.60;61.40
49379;DHT22;35254;47.990;-1.608;2023-05-07T12:27:57;20.60;61.20
49379;DHT22;35254;47.990;-1.608;2023-05-07T12:30:24;20.60;61.20
49379;DHT22;35254;47.990;-1.608;2023-05-07T12:32:54;20.60;60.90
49379;DHT22;35254;47.990;-1.608;2023-05-07T12:35:27;20.60;61.00
49379;DHT22;35254;47.990;-1.608;2023-05-07T12:37:56;20.60;61.00
49379;DHT22;35254;47.990;-1.608;2023-05-07T12:40:24;20.60;60.70
49379;DHT22;35254;47.990;-1.608;2023-05-07T12:42:53;20.60;60.70
49379;DHT22;35254;47.990;-1.608;2023-05-07T12:45:21;20.60;60.70
49379;DHT22;35254;47.990;-1.608;2023-05-07T12:47:47;20.60;60.70
49379;DHT22;35254;47.990;-1.608;2023-05-07T12:50:16;20.60;60.90
49379;DHT22;35254;47.990;-1.608;2023-05-07T12:52:49;20.60;60.50
49379;DHT22;35254;47.990;-1.608;2023-05-07T12:55:15;20.60;60.60
49379;DHT22;35254;47.990;-1.608;2023-05-07T12:57:47;20.60;60.50
49379;DHT22;35254;47.990;-1.608;2023-05-07T13:00:13;20.60;60.50
49379;DHT22;35254;47.990;-1.608;2023-05-07T13:02:40;20.60;60.40
49379;DHT22;35254;47.990;-1.608;2023-05-07T13:05:06;20.60;60.60
49379;DHT22;35254;47.990;-1.608;2023-05-07T13:07:32;20.60;60.60
49379;DHT22;35254;47.990;-1.608;2023-05-07T13:09:58;20.60;60.60
49379;DHT22;35254;47.990;-1.608;2023-05-07T13:12:24;20.60;60.50
49379;DHT22;35254;47.990;-1.608;2023-05-07T13:14:49;20.60;60.70
49379;DHT22;35254;47.990;-1.608;2023-05-07T13:17:15;20.60;60.60
49379;DHT22;35254;47.990;-1.608;2023-05-07T13:19:40;20.60;60.60
49379;DHT22;35254;47.990;-1.608;2023-05-07T13:22:06;20.60;60.70
49379;DHT22;35254;47.990;-1.608;2023-05-07T13:24:32;20.50;60.50
49379;DHT22;35254;47.990;-1.608;2023-05-07T13:26:57;20.50;60.60
49379;DHT22;35254;47.990;-1.608;2023-05-07T13:29:23;20.50;60.60
49379;DHT22;35254;47.990;-1.608;2023-05-07T13:31:57;20.60;60.30
49379;DHT22;35254;47.990;-1.608;2023-05-07T13:34:22;20.50;60.50
49379;DHT22;35254;47.990;-1.608;2023-05-07T13:36:48;20.50;60.20
49379;DHT22;35254;47.990;-1.608;2023-05-07T13:39:14;20.50;60.40
49379;DHT22;35254;47.990;-1.608;2023-05-07T13:41:39;20.50;60.50
49379;DHT22;35254;47.990;-1.608;2023-05-07T13:44:05;20.50;60.60
49379;DHT22;35254;47.990;-1.608;2023-05-07T13:46:31;20.50;60.40
49379;DHT22;35254;47.990;-1.608;2023-05-07T13:48:56;20.60;60.20
49379;DHT22;35254;47.990;-1.608;2023-05-07T13:51:22;20.50;60.20
49379;DHT22;35254;47.990;-1.608;2023-05-07T13:53:48;20.50;60.50
49379;DHT22;35254;47.990;-1.608;2023-05-07T13:56:14;20.50;60.30
49379;DHT22;35254;47.990;-1.608;2023-05-07T13:58:40;20.50;60.30
49379;DHT22;35254;47.990;-1.608;2023-05-07T14:01:06;20.50;60.60
49379;DHT22;35254;47.990;-1.608;2023-05-07T14:03:34;20.50;60.50
49379;DHT22;35254;47.990;-1.608;2023-05-07T14:06:03;20.60;60.30
49379;DHT22;35254;47.990;-1.608;2023-05-07T14:08:29;20.50;60.40
49379;DHT22;35254;47.990;-1.608;2023-05-07T14:10:55;20.50;60.30
49379;DHT22;35254;47.990;-1.608;2023-05-07T14:13:20;20.50;60.00
49379;DHT22;35254;47.990;-1.608;2023-05-07T14:15:46;20.50;60.10
49379;DHT22;35254;47.990;-1.608;2023-05-07T14:18:14;20.50;60.50
49379;DHT22;35254;47.990;-1.608;2023-05-07T14:20:39;20.50;61.30
49379;DHT22;35254;47.990;-1.608;2023-05-07T14:23:05;20.50;61.20
49379;DHT22;35254;47.990;-1.608;2023-05-07T14:25:30;20.50;61.30
49379;DHT22;35254;47.990;-1.608;2023-05-07T14:27:56;20.50;61.40
49379;DHT22;35254;47.990;-1.608;2023-05-07T14:30:22;20.50;61.40
49379;DHT22;35254;47.990;-1.608;2023-05-07T14:32:50;20.50;61.50
49379;DHT22;35254;47.990;-1.608;2023-05-07T14:35:16;20.60;61.60
49379;DHT22;35254;47.990;-1.608;2023-05-07T14:37:42;20.60;61.60
49379;DHT22;35254;47.990;-1.608;2023-05-07T14:40:08;20.50;61.60
49379;DHT22;35254;47.990;-1.608;2023-05-07T14:42:34;20.50;61.70
49379;DHT22;35254;47.990;-1.608;2023-05-07T14:44:59;20.50;61.80
49379;DHT22;35254;47.990;-1.608;2023-05-07T14:47:25;20.50;62.00
49379;DHT22;35254;47.990;-1.608;2023-05-07T14:49:51;20.50;62.00
49379;DHT22;35254;47.990;-1.608;2023-05-07T14:52:17;20.50;62.10
49379;DHT22;35254;47.990;-1.608;2023-05-07T14:54:42;20.60;62.10
49379;DHT22;35254;47.990;-1.608;2023-05-07T14:57:09;20.50;62.10
49379;DHT22;35254;47.990;-1.608;2023-05-07T14:59:35;20.50;62.00
49379;DHT22;35254;47.990;-1.608;2023-05-07T15:02:01;20.50;62.30
49379;DHT22;35254;47.990;-1.608;2023-05-07T15:04:27;20.60;62.40
49379;DHT22;35254;47.990;-1.608;2023-05-07T15:06:52;20.60;62.50
49379;DHT22;35254;47.990;-1.608;2023-05-07T15:09:21;20.60;62.50
49379;DHT22;35254;47.990;-1.608;2023-05-07T15:11:47;20.60;62.50
49379;DHT22;35254;47.990;-1.608;2023-05-07T15:14:13;20.60;62.30
49379;DHT22;35254;47.990;-1.608;2023-05-07T15:16:38;20.50;62.50
49379;DHT22;35254;47.990;-1.608;2023-05-07T15:19:04;20.60;62.70
49379;DHT22;35254;47.990;-1.608;2023-05-07T15:21:29;20.60;62.70